This is the latest recevied weather packets stored in our database for station/object E20TWR-1. If no packets are shown the sender has not sent any weather packets the latest 10 day(s).
| Time | Temp. | Humidity | Pressure | Rain* | Wind** | Luminosity | Snow |
|---|---|---|---|---|---|---|---|
| 1777595194 | 36.67° C | 44% | 1010 hPa | - | - | 0 W/m² | - |
| 1777594569 | 36.67° C | 44% | 1010 hPa | - | - | 0 W/m² | - |
| 1777593943 | 36.11° C | 44% | 1010 hPa | - | - | 0 W/m² | - |
| 1777593315 | 36.11° C | 44% | 1010 hPa | - | - | 0 W/m² | - |
| 1777592688 | 36.11° C | 45% | 1010 hPa | - | - | 0 W/m² | - |
| 1777592060 | 36.11° C | 45% | 1009 hPa | - | - | 0 W/m² | - |
| 1777591434 | 35.56° C | 47% | 1009 hPa | - | - | 0 W/m² | - |
| 1777590807 | 35° C | 47% | 1009 hPa | - | - | 0 W/m² | - |
| 1777590181 | 35° C | 47% | 1009 hPa | - | - | 0 W/m² | - |
| 1777589556 | 35° C | 47% | 1009 hPa | - | - | 0 W/m² | - |
| 1777588930 | 35° C | 46% | 1009 hPa | - | - | 0 W/m² | - |
| 1777588305 | 35° C | 47% | 1009 hPa | - | - | 0 W/m² | - |
| 1777587679 | 34.44° C | 48% | 1009 hPa | - | - | 0 W/m² | - |
| 1777587054 | 33.89° C | 50% | 1009 hPa | - | - | 0 W/m² | - |
| 1777586428 | 32.22° C | 53% | 1009 hPa | - | - | 0 W/m² | - |
| 1777585802 | 30° C | 57% | 1009 hPa | - | - | 0 W/m² | - |
| 1777559251 | 39.44° C | 37% | 1011 hPa | - | - | 0 W/m² | - |
| 1777558625 | 39.44° C | 37% | 1011 hPa | - | - | 0 W/m² | - |
| 1777557999 | 39.44° C | 36% | 1011 hPa | - | - | 0 W/m² | - |
| 1777557374 | 39.44° C | 36% | 1010 hPa | - | - | 0 W/m² | - |
| 1777556750 | 40° C | 35% | 1010 hPa | - | - | 0 W/m² | - |
| 1777556124 | 40° C | 35% | 1009 hPa | - | - | 0 W/m² | - |
| 1777555499 | 40° C | 35% | 1008 hPa | - | - | 0 W/m² | - |
| 1777554873 | 40.56° C | 34% | 1008 hPa | - | - | 0 W/m² | - |
| 1777554248 | 40.56° C | 34% | 1008 hPa | - | - | 0 W/m² | - |
* Rain since midnight (hover to see other rain measurements)
** Current wind speed in m/s (hover to see current wind gust speed)